Time;durP1;ratioP1;P1;durP2;ratioP2;P2;SDS_P1;SDS_P2;PMS_P1;PMS_P2;Temp;Humidity;BMP_temperature;BMP_pressure;BME280_temperature;BME280_humidity;BME280_pressure;Samples;Min_cycle;Max_cycle;Signal;HPM_P1;HPM_P2
2022/05/23 00:00:28;;;;;;;1.90;1.70;;;17.20;98.00;;;;;;5034043;28;20999;-67
2022/05/23 00:02:55;;;;;;;1.70;1.40;;;17.30;98.00;;;;;;5051816;28;20446;-67
2022/05/23 00:05:22;;;;;;;1.90;1.50;;;17.30;98.00;;;;;;5050818;28;20967;-67
2022/05/23 00:07:51;;;;;;;2.73;1.70;;;17.10;98.00;;;;;;5051683;28;20457;-67
2022/05/23 00:10:21;;;;;;;3.10;2.07;;;16.80;98.00;;;;;;5051686;28;20465;-67
2022/05/23 00:12:48;;;;;;;2.00;1.40;;;16.90;98.00;;;;;;5051595;28;20493;-67
2022/05/23 00:15:15;;;;;;;3.00;1.43;;;16.70;98.00;;;;;;5051149;28;20514;-67
2022/05/23 00:17:44;;;;;;;2.33;2.03;;;16.70;98.00;;;;;;5051556;28;20927;-67
2022/05/23 00:20:14;;;;;;;3.10;1.83;;;16.70;98.00;;;;;;5051679;28;20482;-67
2022/05/23 00:22:41;;;;;;;3.30;1.87;;;16.60;98.00;;;;;;5051619;28;20442;-67
2022/05/23 00:25:11;;;;;;;2.80;1.60;;;16.70;98.00;;;;;;5051436;28;20460;-67
2022/05/23 00:27:42;;;;;;;1.60;1.50;;;16.40;98.00;;;;;;5051655;28;20466;-67
2022/05/23 00:30:13;;;;;;;2.33;1.80;;;16.40;98.00;;;;;;5051503;28;20468;-67
2022/05/23 00:35:25;;;;;;;1.80;1.40;;;16.30;98.00;;;;;;5051829;28;20449;-67
2022/05/23 00:37:55;;;;;;;2.13;1.80;;;16.20;98.00;;;;;;5051475;28;20464;-67
2022/05/23 00:40:39;;;;;;;2.27;1.57;;;16.30;98.00;;;;;;5051552;28;20800;-67
2022/05/23 00:43:13;;;;;;;1.63;1.30;;;16.20;98.00;;;;;;5051442;28;20959;-67
2022/05/23 00:45:41;;;;;;;1.57;1.40;;;16.20;98.00;;;;;;5034397;28;20974;-67
2022/05/23 00:48:09;;;;;;;1.83;1.63;;;16.30;98.00;;;;;;5051209;28;20799;-67
2022/05/23 00:50:39;;;;;;;1.30;1.30;;;16.30;98.00;;;;;;5050898;28;20465;-67
2022/05/23 00:53:09;;;;;;;1.70;1.67;;;16.40;98.00;;;;;;5051208;28;21003;-67
2022/05/23 00:55:42;;;;;;;2.07;1.60;;;16.40;98.00;;;;;;5033357;28;20462;-67
2022/05/23 00:58:20;;;;;;;2.30;1.90;;;16.50;98.00;;;;;;5051374;28;20458;-67
2022/05/23 01:00:47;;;;;;;1.77;1.60;;;16.50;98.00;;;;;;5050953;28;20465;-67
2022/05/23 01:03:17;;;;;;;2.13;1.50;;;16.40;98.00;;;;;;5051272;28;20485;-67
2022/05/23 01:05:44;;;;;;;1.97;1.60;;;16.20;98.00;;;;;;5051054;28;20863;-67
2022/05/23 01:08:15;;;;;;;2.17;1.73;;;16.10;98.00;;;;;;5051137;28;20523;-67
2022/05/23 01:10:47;;;;;;;2.10;1.80;;;16.20;98.00;;;;;;5051167;28;20988;-67
2022/05/23 01:13:15;;;;;;;1.73;1.50;;;16.00;98.00;;;;;;5051075;28;20569;-67
2022/05/23 01:15:46;;;;;;;2.30;1.97;;;16.00;98.00;;;;;;5052638;28;20458;-67
2022/05/23 01:18:13;;;;;;;2.23;1.63;;;16.10;98.00;;;;;;5037243;28;20449;-67
2022/05/23 01:20:40;;;;;;;1.63;1.40;;;15.90;98.00;;;;;;5054509;28;20488;-67
2022/05/23 01:23:27;;;;;;;1.50;1.20;;;15.70;98.00;;;;;;5054560;28;20454;-67
2022/05/23 01:25:56;;;;;;;1.30;1.27;;;15.70;98.00;;;;;;5054544;28;20453;-67
2022/05/23 01:28:23;;;;;;;3.00;1.60;;;15.70;98.00;;;;;;5054621;28;20461;-67
2022/05/23 01:30:50;;;;;;;2.13;1.53;;;15.80;98.00;;;;;;5054296;28;20469;-67
2022/05/23 01:33:18;;;;;;;2.57;1.57;;;15.70;98.00;;;;;;5054329;28;20536;-67
2022/05/23 01:35:45;;;;;;;2.63;1.97;;;15.60;98.00;;;;;;5054544;28;20454;-67
2022/05/23 01:38:12;;;;;;;1.60;1.47;;;15.60;98.00;;;;;;5054528;28;20621;-67
2022/05/23 01:40:40;;;;;;;2.97;1.70;;;15.60;98.00;;;;;;5054206;28;20454;-67
2022/05/23 01:43:09;;;;;;;3.87;2.00;;;15.60;98.00;;;;;;5036713;28;20505;-67
2022/05/23 01:45:38;;;;;;;1.67;1.50;;;15.60;98.00;;;;;;5054024;28;20466;-67
2022/05/23 01:48:07;;;;;;;1.60;1.57;;;15.50;98.00;;;;;;5054052;28;20465;-67
2022/05/23 01:50:35;;;;;;;1.70;1.50;;;15.50;98.00;;;;;;5053743;28;20493;-67
2022/05/23 01:53:02;;;;;;;1.70;1.30;;;15.40;98.00;;;;;;5053622;28;20488;-67
2022/05/23 01:55:29;;;;;;;2.07;1.50;;;15.40;98.00;;;;;;5053796;28;20476;-67
2022/05/23 01:57:57;;;;;;;2.00;1.60;;;15.40;98.00;;;;;;5053790;28;20458;-67
2022/05/23 02:03:10;;;;;;;1.80;1.77;;;15.40;98.00;;;;;;5053879;28;21040;-67
2022/05/23 02:05:37;;;;;;;1.87;1.40;;;15.40;98.00;;;;;;5053641;28;20944;-66
2022/05/23 02:08:05;;;;;;;1.67;1.50;;;15.30;98.00;;;;;;5053666;28;20457;-67
2022/05/23 02:10:33;;;;;;;1.70;1.40;;;15.20;98.00;;;;;;5053656;28;20512;-67
2022/05/23 02:13:02;;;;;;;1.60;1.57;;;15.40;98.00;;;;;;5053780;28;20489;-67
2022/05/23 02:15:33;;;;;;;1.80;1.40;;;15.40;98.00;;;;;;5053373;28;20453;-67
2022/05/23 02:18:01;;;;;;;1.73;1.30;;;15.40;98.00;;;;;;5053540;28;20898;-67
2022/05/23 02:20:29;;;;;;;2.40;1.60;;;15.30;98.00;;;;;;5053435;28;20454;-67
2022/05/23 02:22:56;;;;;;;2.00;1.40;;;15.20;98.00;;;;;;5053507;28;20482;-67
2022/05/23 02:25:25;;;;;;;3.20;2.00;;;15.20;98.00;;;;;;5053414;28;20457;-67
2022/05/23 02:27:52;;;;;;;2.13;1.63;;;15.30;98.00;;;;;;5052802;28;20512;-67
2022/05/23 02:30:20;;;;;;;1.30;1.20;;;15.20;98.00;;;;;;5053298;28;20465;-67
2022/05/23 02:32:50;;;;;;;3.30;1.83;;;15.30;98.00;;;;;;5052456;28;20481;-67
2022/05/23 02:35:19;;;;;;;3.13;2.33;;;15.20;98.00;;;;;;5053207;28;20809;-67
2022/05/23 02:37:46;;;;;;;1.37;1.30;;;15.10;98.00;;;;;;5052876;28;21113;-67
2022/05/23 02:40:14;;;;;;;2.37;1.50;;;15.10;98.00;;;;;;5053022;28;20457;-67
2022/05/23 02:42:43;;;;;;;2.20;1.87;;;15.10;98.00;;;;;;5053163;28;20446;-67
2022/05/23 02:45:11;;;;;;;1.63;1.50;;;15.00;98.00;;;;;;5053005;28;20465;-67
2022/05/23 02:47:38;;;;;;;1.80;1.37;;;15.00;98.00;;;;;;5052899;28;20985;-67
2022/05/23 02:50:09;;;;;;;1.70;1.40;;;15.00;98.00;;;;;;5052631;28;20458;-66
2022/05/23 02:52:37;;;;;;;2.60;1.97;;;15.00;98.00;;;;;;5052799;28;20520;-67
2022/05/23 02:55:06;;;;;;;3.20;1.60;;;15.00;98.00;;;;;;5052940;28;20455;-67
2022/05/23 02:57:33;;;;;;;1.50;1.40;;;15.00;98.00;;;;;;5052570;28;20454;-67
2022/05/23 03:00:01;;;;;;;1.93;1.40;;;15.00;98.00;;;;;;5052655;28;20461;-67
2022/05/23 03:05:15;;;;;;;2.03;1.40;;;15.00;98.00;;;;;;5037642;28;20461;-67
2022/05/23 03:07:42;;;;;;;1.47;1.30;;;15.10;98.00;;;;;;5052453;28;20463;-67
2022/05/23 03:10:09;;;;;;;2.43;1.63;;;15.20;98.00;;;;;;5052514;28;20461;-67
2022/05/23 03:12:36;;;;;;;1.57;1.50;;;15.20;98.00;;;;;;5052302;28;21064;-67
2022/05/23 03:15:10;;;;;;;2.13;1.60;;;15.30;98.00;;;;;;5052295;28;20461;-67
2022/05/23 03:17:38;;;;;;;2.90;1.53;;;15.10;98.00;;;;;;5052464;28;20462;-66
2022/05/23 03:20:07;;;;;;;1.40;1.30;;;15.10;98.00;;;;;;5051881;28;20519;-67
2022/05/23 03:28:07;;;;;;;2.03;1.47;;;15.00;98.00;;;;;;5052286;28;20457;-67
2022/05/23 03:30:35;;;;;;;2.20;1.67;;;14.90;98.00;;;;;;5051504;28;20468;-67
2022/05/23 03:33:03;;;;;;;1.20;1.20;;;14.90;98.00;;;;;;5051841;28;20547;-66
2022/05/23 03:35:32;;;;;;;1.90;1.60;;;15.00;98.00;;;;;;5051608;28;20464;-66
2022/05/23 03:38:00;;;;;;;1.97;1.67;;;15.00;98.00;;;;;;5051824;28;20450;-66
2022/05/23 03:40:28;;;;;;;2.00;1.43;;;15.00;98.00;;;;;;5051281;28;20540;-66
2022/05/23 03:42:55;;;;;;;1.80;1.40;;;15.00;98.00;;;;;;5052245;28;20531;-67
2022/05/23 03:45:24;;;;;;;2.80;1.47;;;15.00;98.00;;;;;;5051774;28;20477;-67
2022/05/23 03:47:52;;;;;;;3.87;1.70;;;15.10;98.00;;;;;;5051942;28;20453;-67
2022/05/23 03:50:21;;;;;;;1.50;1.47;;;15.10;98.00;;;;;;5051497;28;20454;-67
2022/05/23 03:52:48;;;;;;;2.00;1.53;;;15.30;98.00;;;;;;5051750;28;20980;-66
2022/05/23 03:55:17;;;;;;;3.67;2.03;;;15.20;98.00;;;;;;5051778;28;20518;-67
2022/05/23 03:57:44;;;;;;;1.63;1.47;;;15.20;98.00;;;;;;5033274;28;20613;-67
2022/05/23 04:00:13;;;;;;;2.07;1.70;;;15.40;98.00;;;;;;5051775;28;20815;-66
2022/05/23 04:02:40;;;;;;;2.13;1.57;;;15.40;98.00;;;;;;5051575;28;20458;-67
2022/05/23 04:05:11;;;;;;;3.13;1.80;;;15.20;98.00;;;;;;5051709;28;20457;-66
2022/05/23 04:07:40;;;;;;;2.00;1.80;;;15.20;98.00;;;;;;5051641;28;20500;-67
2022/05/23 04:10:10;;;;;;;2.07;1.70;;;15.20;98.00;;;;;;5051576;28;20458;-67
2022/05/23 04:12:38;;;;;;;3.00;1.37;;;15.40;98.00;;;;;;5051431;28;20485;-67
2022/05/23 04:15:06;;;;;;;1.20;1.20;;;15.30;98.00;;;;;;5051571;28;20862;-67
2022/05/23 04:17:35;;;;;;;1.70;1.50;;;15.40;98.00;;;;;;5034135;28;20492;-67
2022/05/23 04:20:02;;;;;;;1.60;1.40;;;15.60;98.00;;;;;;5033712;28;20966;-66
2022/05/23 04:22:30;;;;;;;2.57;1.70;;;15.60;98.00;;;;;;5051612;28;20453;-67
2022/05/23 04:24:58;;;;;;;2.37;1.73;;;15.60;98.00;;;;;;5051610;28;20516;-66
2022/05/23 04:27:25;;;;;;;1.63;1.60;;;15.80;98.00;;;;;;5051709;28;20810;-67
2022/05/23 04:29:54;;;;;;;1.43;1.40;;;15.90;98.00;;;;;;5051256;28;20841;-66
2022/05/23 04:35:16;;;;;;;1.50;1.27;;;15.90;98.00;;;;;;5051768;28;20433;-66
2022/05/23 04:37:45;;;;;;;1.50;1.30;;;15.90;98.00;;;;;;5051588;28;20523;-66
2022/05/23 04:40:21;;;;;;;1.87;1.50;;;15.70;98.00;;;;;;5051591;28;20457;-67
2022/05/23 04:42:49;;;;;;;1.90;1.70;;;15.60;98.00;;;;;;5051393;28;20456;-66
2022/05/23 04:45:20;;;;;;;3.37;2.60;;;15.60;98.00;;;;;;5051607;28;20457;-66
2022/05/23 04:50:33;;;;;;;1.83;1.60;;;15.60;98.00;;;;;;5052703;28;20997;-66
2022/05/23 04:53:01;;;;;;;3.00;2.40;;;15.70;98.00;;;;;;5055007;28;20600;-66
2022/05/23 04:55:29;;;;;;;2.57;1.70;;;15.70;98.00;;;;;;5054947;28;20458;-66
2022/05/23 04:57:58;;;;;;;1.60;1.43;;;15.60;98.00;;;;;;5055061;28;20782;-66
2022/05/23 05:00:29;;;;;;;3.40;1.50;;;15.70;98.00;;;;;;5054688;28;20451;-66
2022/05/23 05:02:59;;;;;;;1.87;1.33;;;15.80;98.00;;;;;;5054922;28;20464;-67
2022/05/23 05:05:26;;;;;;;2.30;1.70;;;16.00;98.00;;;;;;5054679;28;20472;-66
2022/05/23 05:07:54;;;;;;;2.40;1.60;;;16.00;98.00;;;;;;5054683;28;20461;-67
2022/05/23 05:10:23;;;;;;;2.07;1.40;;;16.00;98.00;;;;;;5037238;28;20452;-67
2022/05/23 05:12:51;;;;;;;2.03;1.50;;;16.00;98.00;;;;;;5054485;28;20482;-66
2022/05/23 05:15:18;;;;;;;1.40;1.30;;;16.00;98.00;;;;;;5054627;28;20454;-66
2022/05/23 05:17:47;;;;;;;1.63;1.60;;;16.00;98.00;;;;;;5054557;28;20461;-67
2022/05/23 05:20:15;;;;;;;4.60;1.80;;;15.90;98.00;;;;;;5054613;28;20452;-66
2022/05/23 05:22:43;;;;;;;1.70;1.50;;;15.90;98.00;;;;;;5037258;28;20480;-66
2022/05/23 05:25:11;;;;;;;1.90;1.77;;;15.90;98.00;;;;;;5054617;28;20453;-67
2022/05/23 05:27:38;;;;;;;1.53;1.53;;;16.00;98.00;;;;;;5054534;28;20468;-67
2022/05/23 05:30:08;;;;;;;1.93;1.30;;;15.90;98.00;;;;;;5054103;28;20468;-67
2022/05/23 05:32:39;;;;;;;3.30;2.20;;;15.80;98.00;;;;;;5054478;28;20464;-67
2022/05/23 05:35:13;;;;;;;1.80;1.30;;;15.60;98.00;;;;;;5054527;28;20971;-67
2022/05/23 05:37:45;;;;;;;2.10;1.70;;;15.60;98.00;;;;;;5054404;28;20468;-67
2022/05/23 05:40:15;;;;;;;1.57;1.47;;;15.50;98.00;;;;;;5054503;28;20454;-67
2022/05/23 05:42:50;;;;;;;1.97;1.27;;;15.50;98.00;;;;;;5054280;28;20459;-66
2022/05/23 05:45:23;;;;;;;1.67;1.57;;;15.50;98.00;;;;;;5054264;28;20563;-66
2022/05/23 05:47:52;;;;;;;1.90;1.60;;;15.60;98.00;;;;;;5053875;28;20511;-66
2022/05/23 05:50:24;;;;;;;1.73;1.63;;;15.60;98.00;;;;;;5053968;28;20468;-66
2022/05/23 05:52:54;;;;;;;2.90;1.77;;;15.60;98.00;;;;;;5053874;28;20468;-66
2022/05/23 05:55:22;;;;;;;1.40;1.20;;;15.60;98.00;;;;;;5053759;28;20473;-66
2022/05/23 05:57:50;;;;;;;2.27;1.67;;;15.60;98.00;;;;;;5053673;28;20456;-67
2022/05/23 06:00:18;;;;;;;2.10;1.70;;;15.70;98.00;;;;;;5053740;28;20468;-66
2022/05/23 06:02:45;;;;;;;4.33;1.83;;;15.80;98.00;;;;;;5052816;28;20538;-67
2022/05/23 06:05:12;;;;;;;1.80;1.40;;;16.00;98.00;;;;;;5053497;28;20954;-67
2022/05/23 06:13:15;;;;;;;2.23;2.07;;;16.30;98.00;;;;;;5052413;28;20484;-67
2022/05/23 06:15:42;;;;;;;1.87;1.40;;;16.20;98.00;;;;;;5053447;28;20464;-67
2022/05/23 06:18:09;;;;;;;1.97;1.63;;;16.40;98.00;;;;;;5053560;28;20879;-67
2022/05/23 06:20:37;;;;;;;4.40;1.80;;;16.40;98.00;;;;;;5053317;28;20932;-67
2022/05/23 06:23:06;;;;;;;1.60;1.60;;;16.50;98.00;;;;;;5053370;28;20461;-67
2022/05/23 06:25:33;;;;;;;1.60;1.50;;;16.60;98.00;;;;;;5053408;28;20467;-67
2022/05/23 06:28:01;;;;;;;2.37;1.60;;;16.70;98.00;;;;;;5053454;28;20940;-67
2022/05/23 06:30:28;;;;;;;2.50;1.50;;;16.80;98.00;;;;;;5052832;28;21160;-66
2022/05/23 06:32:56;;;;;;;3.10;1.90;;;16.90;98.00;;;;;;5053373;28;20457;-67
2022/05/23 06:35:23;;;;;;;1.83;1.33;;;17.00;98.00;;;;;;5053362;28;20459;-64
2022/05/23 06:37:50;;;;;;;2.50;2.10;;;17.20;98.00;;;;;;5053587;28;20458;-63
2022/05/23 06:40:19;;;;;;;3.30;2.07;;;17.50;98.00;;;;;;5053369;28;20511;-63
2022/05/23 06:42:47;;;;;;;2.83;1.87;;;17.60;98.00;;;;;;5053329;28;20516;-64
2022/05/23 06:45:14;;;;;;;2.73;1.80;;;17.70;98.00;;;;;;5053070;28;20816;-64
2022/05/23 06:47:42;;;;;;;1.70;1.70;;;17.80;98.00;;;;;;5053070;28;20454;-64
2022/05/23 06:50:11;;;;;;;2.73;1.83;;;17.90;98.00;;;;;;5052734;28;20460;-63
2022/05/23 06:52:39;;;;;;;4.90;2.47;;;17.90;98.00;;;;;;5035406;28;20464;-64
2022/05/23 06:55:07;;;;;;;7.30;3.27;;;18.00;98.00;;;;;;5052667;28;20485;-64
2022/05/23 06:57:36;;;;;;;10.27;2.00;;;18.00;98.00;;;;;;5052748;28;20461;-64
2022/05/23 07:00:03;;;;;;;2.67;1.97;;;18.10;98.00;;;;;;5052185;28;20450;-63
2022/05/23 07:02:32;;;;;;;3.40;2.03;;;18.10;98.00;;;;;;5052634;28;20492;-64
2022/05/23 07:13:14;;;;;;;1.83;1.73;;;18.20;98.00;;;;;;5052312;28;20445;-63
2022/05/23 07:15:46;;;;;;;2.03;1.57;;;18.20;98.00;;;;;;5052274;28;21011;-64
2022/05/23 07:18:14;;;;;;;2.07;1.60;;;18.30;98.00;;;;;;5052467;28;20489;-63
2022/05/23 07:20:42;;;;;;;3.57;2.17;;;18.50;98.00;;;;;;5052249;28;20516;-64
2022/05/23 07:23:09;;;;;;;1.90;1.50;;;18.70;98.00;;;;;;5034798;28;20457;-64
2022/05/23 07:25:37;;;;;;;3.50;1.83;;;18.80;98.00;;;;;;5034590;28;20453;-64
2022/05/23 07:28:04;;;;;;;2.43;1.90;;;18.90;98.00;;;;;;5034288;28;20461;-63
2022/05/23 07:30:34;;;;;;;2.87;1.90;;;18.90;98.00;;;;;;5052029;28;20469;-63
2022/05/23 07:33:01;;;;;;;3.17;2.10;;;19.00;98.00;;;;;;5052192;28;20941;-63
2022/05/23 07:35:28;;;;;;;2.07;1.67;;;19.10;98.00;;;;;;5052201;28;20454;-64
2022/05/23 07:37:56;;;;;;;3.13;2.10;;;19.20;98.00;;;;;;5051989;28;20457;-64
2022/05/23 07:40:24;;;;;;;2.43;1.87;;;19.20;98.00;;;;;;5052129;28;20462;-64
2022/05/23 07:42:51;;;;;;;1.93;1.90;;;19.20;98.00;;;;;;5052648;28;20928;-64
2022/05/23 07:45:18;;;;;;;3.00;1.60;;;19.10;98.00;;;;;;5055658;28;20468;-65
2022/05/23 07:47:47;;;;;;;4.50;1.90;;;19.10;98.00;;;;;;5049467;28;20458;-64
2022/05/23 07:50:14;;;;;;;1.87;1.57;;;19.10;98.00;;;;;;5046773;28;20461;-65
2022/05/23 08:00:30;;;;;;;2.20;1.80;;;19.30;98.00;;;;;;5041188;28;20508;-63
2022/05/23 08:01:14;;;;;;;2.60;2.03;;;19.60;98.00;;;;;;4987510;28;20468;-65
2022/05/23 08:03:42;;;;;;;2.20;1.50;;;19.80;98.00;;;;;;4987417;28;20548;-65
2022/05/23 08:06:10;;;;;;;2.67;1.90;;;19.90;98.00;;;;;;5014407;28;20457;-64
2022/05/23 08:08:37;;;;;;;1.77;1.57;;;19.90;98.00;;;;;;5048606;28;20546;-64
2022/05/23 08:11:08;;;;;;;1.77;1.73;;;19.90;98.00;;;;;;5031218;28;20551;-63
2022/05/23 08:13:35;;;;;;;2.37;1.70;;;20.10;98.00;;;;;;5048516;28;20536;-64
2022/05/23 08:16:03;;;;;;;2.80;1.70;;;20.10;98.00;;;;;;5048438;28;20538;-65
2022/05/23 08:18:30;;;;;;;4.90;2.00;;;20.00;98.00;;;;;;5048742;28;20458;-64
2022/05/23 08:20:59;;;;;;;2.67;1.90;;;20.10;98.00;;;;;;5053041;28;20450;-64
2022/05/23 08:23:26;;;;;;;1.87;1.60;;;20.20;98.00;;;;;;5048505;28;20449;-65
2022/05/23 08:25:54;;;;;;;2.67;1.90;;;20.20;98.00;;;;;;5050582;28;20462;-64
2022/05/23 08:28:21;;;;;;;1.50;1.40;;;20.30;98.00;;;;;;5052501;28;20457;-64
2022/05/23 08:30:48;;;;;;;3.23;1.73;;;20.50;98.00;;;;;;5052398;28;20541;-64
2022/05/23 08:33:15;;;;;;;2.30;2.03;;;20.70;98.00;;;;;;5052447;28;20453;-64
2022/05/23 08:35:42;;;;;;;3.60;2.13;;;20.80;98.00;;;;;;5059825;28;20491;-63
2022/05/23 08:38:11;;;;;;;2.03;1.63;;;21.00;98.00;;;;;;5052182;28;20955;-64
2022/05/23 08:40:50;;;;;;;2.90;2.13;;;21.10;98.00;;;;;;5052095;28;20978;-64
2022/05/23 08:43:27;;;;;;;3.70;2.70;;;21.00;98.00;;;;;;5052629;28;20461;-64
2022/05/23 08:45:59;;;;;;;1.90;1.67;;;20.90;98.00;;;;;;5050929;28;20530;-64
2022/05/23 08:48:31;;;;;;;5.27;1.87;;;20.80;98.00;;;;;;5051500;28;20821;-63
2022/05/23 08:51:04;;;;;;;2.50;1.80;;;20.80;98.00;;;;;;5049841;28;20528;-63
2022/05/23 08:53:38;;;;;;;1.70;1.53;;;20.80;98.00;;;;;;5051858;28;20458;-63
2022/05/23 08:56:15;;;;;;;4.40;2.20;;;20.80;98.00;;;;;;5051899;28;20461;-63
2022/05/23 08:58:47;;;;;;;3.10;2.17;;;20.80;98.00;;;;;;5051773;28;20465;-63
2022/05/23 09:01:17;;;;;;;1.97;1.80;;;20.80;98.00;;;;;;5050780;28;20952;-63
2022/05/23 09:03:51;;;;;;;2.07;1.70;;;20.90;98.00;;;;;;5051261;28;20460;-62
2022/05/23 09:06:26;;;;;;;2.23;1.93;;;21.00;98.00;;;;;;5051472;28;20861;-63
2022/05/23 09:08:57;;;;;;;4.40;2.10;;;21.00;98.00;;;;;;5051938;28;20963;-63
2022/05/23 09:11:32;;;;;;;2.37;1.70;;;21.00;98.00;;;;;;5052075;28;20533;-63
2022/05/23 09:14:01;;;;;;;2.87;2.10;;;20.90;98.00;;;;;;5052013;28;20489;-63
2022/05/23 09:16:30;;;;;;;2.80;2.07;;;20.90;98.00;;;;;;5052176;28;20461;-63
2022/05/23 09:19:04;;;;;;;3.43;1.83;;;21.10;98.00;;;;;;5053381;28;20960;-64
2022/05/23 09:24:17;;;;;;;2.03;1.87;;;21.20;98.00;;;;;;5051739;28;20445;-63
2022/05/23 09:26:46;;;;;;;2.70;1.83;;;21.40;98.00;;;;;;5034182;28;20460;-63
2022/05/23 09:29:14;;;;;;;2.83;1.87;;;21.40;98.00;;;;;;5051917;28;21821;-63
2022/05/23 09:31:51;;;;;;;1.63;1.60;;;21.40;98.00;;;;;;5033678;28;21316;-63
2022/05/23 09:34:32;;;;;;;2.10;1.90;;;21.30;98.00;;;;;;5051661;28;20500;-62
2022/05/23 09:37:02;;;;;;;3.17;2.10;;;21.30;98.00;;;;;;5051789;28;21118;-63
2022/05/23 09:39:31;;;;;;;2.17;1.93;;;21.30;98.00;;;;;;5051755;28;20535;-63
2022/05/23 09:50:34;;;;;;;2.27;2.00;;;21.70;98.00;;;;;;5048417;28;20965;-63
2022/05/23 09:53:02;;;;;;;4.10;2.47;;;22.00;98.00;;;;;;5050417;28;20485;-63
2022/05/23 09:55:33;;;;;;;2.30;1.70;;;22.30;98.00;;;;;;5050678;28;20539;-63
2022/05/23 09:58:03;;;;;;;3.33;1.93;;;22.50;98.00;;;;;;5050651;28;20495;-63
2022/05/23 10:00:34;;;;;;;3.97;2.37;;;22.80;98.00;;;;;;5051174;28;20465;-63
2022/05/23 10:03:06;;;;;;;2.57;1.70;;;23.10;98.00;;;;;;5053443;28;20457;-64
2022/05/23 10:05:35;;;;;;;2.50;2.00;;;23.30;98.00;;;;;;5050629;28;20993;-63
2022/05/23 10:08:05;;;;;;;2.13;1.93;;;23.40;98.00;;;;;;5052394;28;20458;-64
2022/05/23 10:10:37;;;;;;;2.30;2.00;;;23.40;98.00;;;;;;5050812;28;20454;-65
2022/05/23 10:13:28;;;;;;;3.23;2.23;;;23.40;98.00;;;;;;5032514;28;20461;-63
2022/05/23 10:15:58;;;;;;;2.90;2.37;;;23.40;98.00;;;;;;5051101;28;20493;-63
2022/05/23 10:18:29;;;;;;;3.20;2.33;;;23.40;98.00;;;;;;5050576;28;20450;-64
2022/05/23 10:20:56;;;;;;;2.60;2.17;;;23.70;98.00;;;;;;5050685;28;20461;-63
2022/05/23 10:23:26;;;;;;;2.20;1.83;;;23.90;98.00;;;;;;5050612;28;20959;-64
2022/05/23 10:26:02;;;;;;;4.17;2.20;;;24.20;98.00;;;;;;5050642;28;20461;-64
2022/05/23 10:28:37;;;;;;;3.00;2.20;;;24.40;98.00;;;;;;5050465;28;20910;-63
2022/05/23 10:31:09;;;;;;;2.33;2.13;;;24.50;98.00;;;;;;5050788;28;20825;-63
2022/05/23 10:33:39;;;;;;;4.73;2.40;;;24.50;98.00;;;;;;5050714;28;20458;-63
2022/05/23 10:36:13;;;;;;;2.93;2.30;;;24.40;98.00;;;;;;5050922;28;20496;-63
2022/05/23 10:44:34;;;;;;;3.33;2.20;;;23.90;98.00;;;;;;5051260;28;20448;-65
2022/05/23 10:47:10;;;;;;;3.20;2.20;;;23.80;98.00;;;;;;5042331;28;20461;-63
2022/05/23 10:49:45;;;;;;;6.47;2.40;;;23.70;98.00;;;;;;5047741;28;21146;-63
2022/05/23 10:52:20;;;;;;;3.53;2.57;;;23.60;98.00;;;;;;5049938;28;20469;-63
2022/05/23 10:54:56;;;;;;;3.90;2.57;;;23.50;98.00;;;;;;5049711;28;20489;-63
2022/05/23 10:57:44;;;;;;;3.70;2.47;;;23.60;98.00;;;;;;5049507;28;20472;-63
2022/05/23 11:00:17;;;;;;;2.83;2.23;;;23.40;98.00;;;;;;5049382;28;20466;-63
2022/05/23 11:02:54;;;;;;;3.13;2.30;;;23.40;98.00;;;;;;5049553;28;20460;-64
2022/05/23 11:05:28;;;;;;;3.70;2.40;;;23.30;98.00;;;;;;5041252;28;20469;-64
2022/05/23 11:08:12;;;;;;;3.97;2.20;;;23.20;98.00;;;;;;5049401;28;20871;-63
2022/05/23 11:10:47;;;;;;;5.53;4.13;;;23.00;98.00;;;;;;5049267;28;21082;-63
2022/05/23 11:13:47;;;;;;;2.40;2.20;;;22.80;98.00;;;;;;5049467;28;20877;-62
2022/05/23 11:16:21;;;;;;;3.90;2.30;;;22.70;98.00;;;;;;5048797;28;20500;-63
2022/05/23 11:19:15;;;;;;;2.93;1.93;;;22.70;98.00;;;;;;5049706;28;20460;-65
2022/05/23 11:21:47;;;;;;;3.70;2.20;;;22.60;98.00;;;;;;5027860;28;20457;-64
2022/05/23 11:24:19;;;;;;;4.13;2.77;;;22.50;98.00;;;;;;5049179;28;20948;-64
2022/05/23 11:26:50;;;;;;;2.17;2.00;;;22.50;98.00;;;;;;5031282;28;20987;-63
2022/05/23 11:34:59;;;;;;;1.80;1.70;;;22.10;98.00;;;;;;5049172;28;20511;-64
2022/05/23 11:37:52;;;;;;;4.20;2.30;;;22.10;98.00;;;;;;5048938;28;20461;-64
2022/05/23 11:40:59;;;;;;;2.60;2.40;;;22.00;98.00;;;;;;5049090;28;20852;-63
2022/05/23 11:43:27;;;;;;;2.63;2.00;;;21.90;98.00;;;;;;5049611;28;20516;-64
2022/05/23 11:46:02;;;;;;;2.93;2.10;;;21.80;98.00;;;;;;5048069;28;20973;-62
2022/05/23 11:48:55;;;;;;;2.63;1.90;;;21.80;98.00;;;;;;5049748;28;20492;-64
2022/05/23 11:51:42;;;;;;;2.73;2.20;;;21.70;98.00;;;;;;5047265;28;20957;-62
2022/05/23 11:54:13;;;;;;;3.93;2.97;;;21.70;98.00;;;;;;5049844;28;20549;-62
2022/05/23 11:57:10;;;;;;;4.33;2.43;;;21.50;98.00;;;;;;5049064;28;20493;-63
2022/05/23 12:00:00;;;;;;;2.50;1.60;;;21.10;98.00;;;;;;5048806;28;20624;-63
2022/05/23 12:02:33;;;;;;;2.47;2.20;;;20.90;98.00;;;;;;5049074;28;20813;-63
2022/05/23 12:05:32;;;;;;;1.83;1.53;;;20.60;98.00;;;;;;5049312;28;20547;-63
2022/05/23 12:08:03;;;;;;;1.80;1.50;;;20.30;98.00;;;;;;5048595;28;20469;-63
2022/05/23 12:10:59;;;;;;;4.80;2.60;;;20.10;98.00;;;;;;5048710;28;20457;-63
2022/05/23 12:13:57;;;;;;;2.27;1.73;;;19.90;98.00;;;;;;5041608;28;20477;-63
2022/05/23 12:16:39;;;;;;;1.80;1.70;;;19.90;98.00;;;;;;5048970;28;20489;-63
2022/05/23 12:19:26;;;;;;;1.70;1.40;;;19.80;98.00;;;;;;5048974;28;20465;-64
2022/05/23 12:22:13;;;;;;;1.83;1.60;;;19.70;98.00;;;;;;5049247;28;20782;-64
2022/05/23 12:24:58;;;;;;;1.73;1.43;;;19.60;98.00;;;;;;5042307;28;20465;-63
2022/05/23 12:27:32;;;;;;;3.30;2.40;;;19.70;98.00;;;;;;5048725;28;20462;-64
2022/05/23 12:30:36;;;;;;;2.43;1.40;;;19.60;98.00;;;;;;5055792;28;20821;-64
2022/05/23 12:33:14;;;;;;;2.10;1.50;;;19.60;98.00;;;;;;5047754;28;20480;-65
2022/05/23 12:35:55;;;;;;;2.40;1.80;;;19.50;98.00;;;;;;5048786;28;20898;-64
2022/05/23 12:38:36;;;;;;;2.37;1.90;;;19.40;98.00;;;;;;5047934;28;20466;-64
2022/05/23 12:41:14;;;;;;;3.57;2.07;;;19.40;98.00;;;;;;5048956;28;20508;-64
2022/05/23 12:44:00;;;;;;;2.47;1.80;;;19.30;98.00;;;;;;5048235;28;20465;-64
2022/05/23 12:46:39;;;;;;;1.80;1.43;;;19.20;98.00;;;;;;5047458;28;20458;-64
2022/05/23 12:49:26;;;;;;;2.67;2.03;;;19.20;98.00;;;;;;5011935;28;20462;-65
2022/05/23 12:52:26;;;;;;;1.93;1.53;;;19.30;98.00;;;;;;5043427;28;20461;-64
2022/05/23 12:55:15;;;;;;;2.03;1.57;;;19.30;98.00;;;;;;5050426;28;20469;-64
2022/05/23 12:58:18;;;;;;;3.00;1.40;;;19.50;98.00;;;;;;5033358;28;20866;-65
2022/05/23 13:00:48;;;;;;;2.00;1.60;;;19.70;98.00;;;;;;5012919;28;20441;-63
2022/05/23 13:03:26;;;;;;;1.77;1.70;;;19.90;98.00;;;;;;5048283;28;20473;-63
2022/05/23 13:05:59;;;;;;;2.47;1.60;;;20.00;98.00;;;;;;5048673;28;20486;-63
2022/05/23 13:08:33;;;;;;;7.20;2.40;;;20.30;98.00;;;;;;5048121;28;20555;-64
2022/05/23 13:11:05;;;;;;;2.20;1.70;;;20.50;98.00;;;;;;5049064;28;20847;-64
2022/05/23 13:13:36;;;;;;;17.20;2.00;;;20.70;98.00;;;;;;5052206;28;20461;-63
2022/05/23 13:16:18;;;;;;;1.93;1.60;;;20.80;98.00;;;;;;5052108;28;20493;-63
2022/05/23 13:27:23;;;;;;;1.40;1.40;;;21.60;98.00;;;;;;5031178;28;20461;-65
2022/05/23 13:29:55;;;;;;;2.90;1.73;;;21.80;98.00;;;;;;5051728;28;20520;-64
2022/05/23 13:32:23;;;;;;;1.70;1.60;;;22.00;98.00;;;;;;5051558;28;20520;-64
2022/05/23 13:34:52;;;;;;;2.57;2.00;;;22.10;98.00;;;;;;5043681;28;20508;-65
2022/05/23 13:37:27;;;;;;;1.70;1.60;;;22.50;98.00;;;;;;5051834;28;20454;-64
2022/05/23 13:39:56;;;;;;;2.27;1.47;;;23.30;98.00;;;;;;5044107;28;20461;-64
2022/05/23 13:42:25;;;;;;;1.60;1.50;;;23.90;98.00;;;;;;5051151;28;20454;-63
2022/05/23 13:44:53;;;;;;;1.63;1.50;;;24.50;98.00;;;;;;5051307;28;20458;-64
2022/05/23 13:47:23;;;;;;;2.00;1.57;;;24.80;98.00;;;;;;5050268;28;20457;-64
2022/05/23 13:49:54;;;;;;;2.60;2.03;;;25.20;98.00;;;;;;5049190;28;20496;-64
2022/05/23 13:52:26;;;;;;;3.47;1.57;;;25.40;98.00;;;;;;5051545;28;21117;-63
2022/05/23 13:55:00;;;;;;;2.43;2.07;;;25.70;98.00;;;;;;5033970;28;20458;-63
2022/05/23 13:57:34;;;;;;;1.57;1.40;;;25.80;98.00;;;;;;5034337;28;20470;-63
2022/05/23 14:00:06;;;;;;;2.23;1.77;;;26.00;98.00;;;;;;5051411;28;20523;-63
2022/05/23 14:02:39;;;;;;;2.10;2.00;;;26.30;98.00;;;;;;5050962;28;20458;-63
2022/05/23 14:05:08;;;;;;;2.00;1.70;;;26.60;98.00;;;;;;5050891;28;20580;-63
2022/05/23 14:07:41;;;;;;;2.87;1.97;;;26.80;98.00;;;;;;5051001;28;20462;-63
2022/05/23 14:10:18;;;;;;;3.40;1.90;;;27.00;98.00;;;;;;5016933;28;20797;-63
2022/05/23 14:12:48;;;;;;;1.80;1.60;;;27.30;98.00;;;;;;5050788;28;20457;-63
2022/05/23 14:15:22;;;;;;;2.93;1.90;;;27.50;98.00;;;;;;5050775;28;20454;-63
2022/05/23 14:17:51;;;;;;;2.27;1.57;;;27.80;98.00;;;;;;5050579;28;20465;-63
2022/05/23 14:20:25;;;;;;;2.10;1.50;;;27.80;96.00;;;;;;5050786;28;20944;-63